Pagina principale
METAR-TAF:

METAR-TAF

Aeroporti :

Iqaluit, Nunavut, Canada

latitudine: 63-45N, longitudine: 068-33W, altezza: 34 m

Osservazione

Il bollettino è stato emesso 42 minuti fa, alle 17:00 UTC
Vento 21 kt da nord/nord-ovest
Temperature -12°C
Umidità 72%
Pressione 1025 hPa
Visibilità: 40.2 km
Cielo sereno

METAR: CYFB 191700Z 34021KT 25SM SKC M12/M16 A3026 RMK SLP254

Ora: 13:42 (17:42 UTC)

Previsione

Il bollettino è stato emesso 6 ore e 4 minuti fa, alle 11:38 UTC
Previsione valida dal 19 alle 12 UTC al 20 alle 12 UTC
Vento 20 kt da nord/nord-ovest con raffiche fino a 30 kt
Visibilità: 10 km
Cielo sereno
Evoluzione graduale
dal 19 alle 23 UTC al 20 alle 01 UTC
Vento 15 kt da nord/nord-ovest

TAF: CYFB 191138Z 1912/2012 34020G30KT P6SM SKC BECMG 1923/2001 33015KT RMK NXT FCST BY 191800Z

Osservazioni e previsioni meteorologiche di più di 4000 aeroporti (messaggi METAR e TAF).

Le stazioni disponibili sono rappresentate dai dischi gialli e rossi sulla carta.

Puntare il mouse per vedere il nome della stazione.

Clicca sopra per visualizzare le osservazioni e previsioni meteorologiche.

Per cambiare la mappa : fare clic sui pulsanti verdi con una croce nera per ingrandire, il pulsante verde con un trattino per diminuire, o sulla freccia verde per le mappe adiacenti.


METAR-TAF: